Time,TemperatureF,DewpointF,PressureIn,WindDirection,WindDirectionDegrees,WindSpeedMPH,WindSpeedGustMPH,Humidity,HourlyPrecipIn,Conditions,Clouds,dailyrainin,SoftwareType,DateUTC
2017-07-24 00:08:00,71.4,70.0,29.99,West,260,0.0,0.0,96,0.00,,,0.00,weatherlink.com 1.10,2017-07-24 05:08:00,
2017-07-24 00:24:00,71.3,70.0,30.00,West,259,0.0,0.0,96,0.00,,,0.00,weatherlink.com 1.10,2017-07-24 05:24:00,
2017-07-24 00:39:00,71.3,70.0,30.00,West,260,0.0,0.0,97,0.00,,,0.00,weatherlink.com 1.10,2017-07-24 05:39:00,
2017-07-24 00:53:00,71.3,70.0,30.00,West,260,0.0,0.0,97,0.00,,,0.00,weatherlink.com 1.10,2017-07-24 05:53:00,
2017-07-24 01:08:00,71.1,70.0,30.00,West,260,0.0,0.0,97,0.00,,,0.00,weatherlink.com 1.10,2017-07-24 06:08:00,
2017-07-24 01:23:00,71.0,70.0,30.01,West,260,0.0,0.0,97,0.00,,,0.00,weatherlink.com 1.10,2017-07-24 06:23:00,
2017-07-24 01:38:00,70.9,70.0,30.01,West,260,0.0,0.0,97,0.00,,,0.00,weatherlink.com 1.10,2017-07-24 06:38:00,
2017-07-24 01:53:00,70.8,70.0,30.01,West,259,0.0,0.0,97,0.00,,,0.00,weatherlink.com 1.10,2017-07-24 06:53:00,
2017-07-24 02:08:00,70.5,70.0,30.01,West,260,0.0,0.0,97,0.00,,,0.00,weatherlink.com 1.10,2017-07-24 07:08:00,
2017-07-24 02:23:00,70.4,70.0,30.01,West,259,0.0,0.0,97,0.00,,,0.00,weatherlink.com 1.10,2017-07-24 07:23:00,
2017-07-24 02:38:00,70.3,69.0,30.01,West,259,0.0,0.0,97,0.00,,,0.00,weatherlink.com 1.10,2017-07-24 07:38:00,
2017-07-24 02:54:00,70.3,69.0,30.00,West,260,0.0,0.0,97,0.00,,,0.00,weatherlink.com 1.10,2017-07-24 07:54:00,
2017-07-24 03:09:00,70.3,69.0,30.00,West,260,0.0,0.0,97,0.00,,,0.00,weatherlink.com 1.10,2017-07-24 08:09:00,
2017-07-24 03:24:00,70.0,69.0,30.00,West,260,0.0,0.0,97,0.00,,,0.00,weatherlink.com 1.10,2017-07-24 08:24:00,
2017-07-24 03:39:00,69.8,69.0,30.00,West,260,0.0,0.0,97,0.00,,,0.00,weatherlink.com 1.10,2017-07-24 08:39:00,
2017-07-24 03:54:00,69.9,69.0,30.00,West,259,0.0,0.0,97,0.00,,,0.00,weatherlink.com 1.10,2017-07-24 08:54:00,
2017-07-24 04:09:00,69.8,69.0,29.99,West,260,0.0,0.0,97,0.00,,,0.00,weatherlink.com 1.10,2017-07-24 09:09:00,
2017-07-24 04:24:00,69.9,69.0,30.00,West,260,0.0,0.0,97,0.00,,,0.00,weatherlink.com 1.10,2017-07-24 09:24:00,
2017-07-24 04:39:00,70.0,69.0,30.00,West,260,0.0,0.0,97,0.00,,,0.00,weatherlink.com 1.10,2017-07-24 09:39:00,
2017-07-24 04:54:00,69.9,69.0,30.00,West,259,0.0,0.0,97,0.00,,,0.00,weatherlink.com 1.10,2017-07-24 09:54:00,
2017-07-24 05:09:00,69.8,69.0,30.00,West,260,0.0,0.0,97,0.00,,,0.00,weatherlink.com 1.10,2017-07-24 10:09:00,
2017-07-24 05:24:00,70.0,69.0,30.00,West,260,0.0,0.0,97,0.00,,,0.00,weatherlink.com 1.10,2017-07-24 10:24:00,
2017-07-24 05:39:00,70.1,69.0,30.00,West,260,0.0,0.0,97,0.00,,,0.00,weatherlink.com 1.10,2017-07-24 10:39:00,
2017-07-24 05:54:00,69.8,69.0,30.01,West,260,0.0,0.0,97,0.00,,,0.00,weatherlink.com 1.10,2017-07-24 10:54:00,
2017-07-24 06:09:00,69.8,69.0,30.00,West,260,0.0,0.0,97,0.00,,,0.00,weatherlink.com 1.10,2017-07-24 11:09:00,
2017-07-24 06:24:00,69.5,69.0,30.02,West,259,0.0,0.0,97,0.00,,,0.00,weatherlink.com 1.10,2017-07-24 11:24:00,
2017-07-24 06:39:00,69.3,69.0,30.02,West,259,0.0,0.0,97,0.00,,,0.00,weatherlink.com 1.10,2017-07-24 11:39:00,
2017-07-24 06:54:00,69.3,69.0,30.03,West,260,0.0,0.0,97,0.00,,,0.00,weatherlink.com 1.10,2017-07-24 11:54:00,
2017-07-24 07:09:00,69.3,69.0,30.04,West,259,0.0,0.0,97,0.00,,,0.00,weatherlink.com 1.10,2017-07-24 12:09:00,
2017-07-24 07:24:00,69.9,69.0,30.04,West,260,0.0,0.0,97,0.00,,,0.00,weatherlink.com 1.10,2017-07-24 12:24:00,
2017-07-24 07:39:00,70.4,70.0,30.04,West,260,0.0,0.0,97,0.00,,,0.00,weatherlink.com 1.10,2017-07-24 12:39:00,
2017-07-24 07:54:00,70.9,70.0,30.04,West,260,0.0,0.0,97,0.00,,,0.00,weatherlink.com 1.10,2017-07-24 12:54:00,
2017-07-24 08:09:00,72.2,71.0,30.04,SE,134,0.0,1.0,97,0.00,,,0.00,weatherlink.com 1.10,2017-07-24 13:09:00,
2017-07-24 08:24:00,72.9,72.0,30.04,SE,146,0.0,0.0,97,0.00,,,0.00,weatherlink.com 1.10,2017-07-24 13:24:00,
2017-07-24 08:39:00,73.9,73.0,30.05,SE,146,0.0,0.0,97,0.00,,,0.00,weatherlink.com 1.10,2017-07-24 13:39:00,
2017-07-24 08:54:00,74.4,74.0,30.06,SE,146,0.0,0.0,97,0.00,,,0.00,weatherlink.com 1.10,2017-07-24 13:54:00,
2017-07-24 09:09:00,74.7,74.0,30.06,SSE,147,0.0,1.0,97,0.00,,,0.00,weatherlink.com 1.10,2017-07-24 14:09:00,
2017-07-24 09:24:00,74.6,74.0,30.06,East,96,0.0,0.0,97,0.00,,,0.00,weatherlink.com 1.10,2017-07-24 14:24:00,
2017-07-24 09:39:00,75.4,75.0,30.06,SE,134,0.0,1.0,97,0.00,,,0.00,weatherlink.com 1.10,2017-07-24 14:39:00,
2017-07-24 09:54:00,75.7,75.0,30.06,SSE,162,0.0,1.0,97,0.00,,,0.00,weatherlink.com 1.10,2017-07-24 14:54:00,
2017-07-24 10:09:00,76.1,75.0,30.06,East,82,0.0,2.0,97,0.00,,,0.00,weatherlink.com 1.10,2017-07-24 15:09:00,
2017-07-24 10:24:00,77.3,76.0,30.06,West,277,0.0,2.0,96,0.00,,,0.00,weatherlink.com 1.10,2017-07-24 15:24:00,
2017-07-24 10:39:00,78.1,77.0,30.06,WNW,288,1.0,2.0,96,0.00,,,0.00,weatherlink.com 1.10,2017-07-24 15:39:00,
2017-07-24 10:54:00,78.2,77.0,30.06,West,278,0.0,1.0,95,0.00,,,0.00,weatherlink.com 1.10,2017-07-24 15:54:00,
2017-07-24 11:10:00,79.9,78.0,30.06,West,261,0.0,3.0,95,0.00,,,0.00,weatherlink.com 1.10,2017-07-24 16:10:00,
2017-07-24 11:24:00,79.8,78.0,30.06,WSW,254,0.0,5.0,95,0.00,,,0.00,weatherlink.com 1.10,2017-07-24 16:24:00,
2017-07-24 11:39:00,81.5,80.0,30.06,West,273,0.0,4.0,95,0.00,,,0.00,weatherlink.com 1.10,2017-07-24 16:39:00,
2017-07-24 11:54:00,83.9,79.0,30.06,WNW,283,0.0,6.0,85,0.00,,,0.00,weatherlink.com 1.10,2017-07-24 16:54:00,
2017-07-24 12:10:00,86.5,79.0,30.05,West,266,6.0,6.0,77,0.00,,,0.00,weatherlink.com 1.10,2017-07-24 17:10:00,
2017-07-24 12:25:00,87.7,78.0,30.05,SSW,193,0.0,5.0,72,0.00,,,0.00,weatherlink.com 1.10,2017-07-24 17:25:00,
2017-07-24 12:40:00,88.7,77.0,30.04,SE,140,0.0,6.0,69,0.00,,,0.00,weatherlink.com 1.10,2017-07-24 17:40:00,
2017-07-24 12:55:00,89.7,77.0,30.04,West,269,2.0,6.0,66,0.00,,,0.00,weatherlink.com 1.10,2017-07-24 17:55:00,
2017-07-24 13:10:00,89.7,75.0,30.04,ESE,113,2.0,5.0,63,0.00,,,0.00,weatherlink.com 1.10,2017-07-24 18:10:00,
2017-07-24 13:25:00,90.4,78.0,30.04,SSW,202,0.0,3.0,68,0.00,,,0.00,weatherlink.com 1.10,2017-07-24 18:25:00,
2017-07-24 13:40:00,91.3,77.0,30.03,West,273,0.0,2.0,63,0.00,,,0.00,weatherlink.com 1.10,2017-07-24 18:40:00,
2017-07-24 13:55:00,93.0,77.0,30.03,SE,137,2.0,4.0,60,0.00,,,0.00,weatherlink.com 1.10,2017-07-24 18:55:00,
2017-07-24 14:10:00,93.5,76.0,30.02,SW,214,0.0,5.0,57,0.00,,,0.00,weatherlink.com 1.10,2017-07-24 19:10:00,
2017-07-24 14:25:00,92.5,75.0,30.01,SW,214,0.0,1.0,57,0.00,,,0.00,weatherlink.com 1.10,2017-07-24 19:25:00,
2017-07-24 14:40:00,94.1,75.0,30.01,WNW,284,0.0,5.0,54,0.00,,,0.00,weatherlink.com 1.10,2017-07-24 19:40:00,
2017-07-24 14:55:00,93.9,72.0,30.00,ESE,110,0.0,7.0,49,0.00,,,0.00,weatherlink.com 1.10,2017-07-24 19:55:00,
2017-07-24 15:10:00,94.1,73.0,29.99,SE,145,5.0,10.0,51,0.00,,,0.00,weatherlink.com 1.10,2017-07-24 20:10:00,
2017-07-24 15:25:00,94.6,73.0,29.97,ESE,108,0.0,7.0,49,0.00,,,0.00,weatherlink.com 1.10,2017-07-24 20:25:00,
2017-07-24 15:40:00,94.1,70.0,29.97,ESE,113,0.0,7.0,46,0.00,,,0.00,weatherlink.com 1.10,2017-07-24 20:40:00,
2017-07-24 15:55:00,95.4,72.0,29.98,SE,141,0.0,5.0,47,0.00,,,0.00,weatherlink.com 1.10,2017-07-24 20:55:00,
2017-07-24 16:10:00,96.0,71.0,29.97,ESE,104,0.0,7.0,45,0.00,,,0.00,weatherlink.com 1.10,2017-07-24 21:10:00,
2017-07-24 16:25:00,95.0,68.0,29.97,ESE,122,8.0,11.0,42,0.00,,,0.00,weatherlink.com 1.10,2017-07-24 21:25:00,
2017-07-24 16:40:00,95.4,69.0,29.97,ESE,103,3.0,9.0,42,0.00,,,0.00,weatherlink.com 1.10,2017-07-24 21:40:00,
2017-07-24 16:55:00,95.8,69.0,29.97,SW,229,0.0,8.0,42,0.00,,,0.00,weatherlink.com 1.10,2017-07-24 21:55:00,
2017-07-24 17:10:00,95.7,66.0,29.97,ESE,103,6.0,9.0,38,0.00,,,0.00,weatherlink.com 1.10,2017-07-24 22:10:00,
2017-07-24 17:25:00,96.1,68.0,29.97,East,95,0.0,4.0,40,0.00,,,0.00,weatherlink.com 1.10,2017-07-24 22:25:00,
2017-07-24 17:40:00,96.0,67.0,29.97,East,95,3.0,6.0,38,0.00,,,0.00,weatherlink.com 1.10,2017-07-24 22:40:00,
2017-07-24 17:55:00,95.1,69.0,29.98,SE,129,2.0,6.0,42,0.00,,,0.00,weatherlink.com 1.10,2017-07-24 22:55:00,
2017-07-24 18:10:00,93.9,65.0,29.97,SSE,168,0.0,5.0,38,0.00,,,0.00,weatherlink.com 1.10,2017-07-24 23:10:00,
2017-07-24 18:25:00,92.8,67.0,29.98,SSW,212,0.0,3.0,43,0.00,,,0.00,weatherlink.com 1.10,2017-07-24 23:25:00,
2017-07-24 18:40:00,92.0,66.0,29.98,SSE,157,0.0,4.0,42,0.00,,,0.00,weatherlink.com 1.10,2017-07-24 23:40:00,
2017-07-24 18:55:00,91.4,67.0,29.98,SE,140,0.0,1.0,44,0.00,,,0.00,weatherlink.com 1.10,2017-07-24 23:55:00,
2017-07-24 19:10:00,90.7,66.0,29.98,East,96,0.0,4.0,44,0.00,,,0.00,weatherlink.com 1.10,2017-07-25 00:10:00,
2017-07-24 19:25:00,90.3,66.0,29.98,East,96,0.0,4.0,44,0.00,,,0.00,weatherlink.com 1.10,2017-07-25 00:25:00,
2017-07-24 19:40:00,89.2,65.0,29.97,East,96,0.0,1.0,45,0.00,,,0.00,weatherlink.com 1.10,2017-07-25 00:40:00,
2017-07-24 19:55:00,86.8,71.0,29.98,East,96,0.0,0.0,59,0.00,,,0.00,weatherlink.com 1.10,2017-07-25 00:55:00,
2017-07-24 20:10:00,85.1,72.0,29.99,East,96,0.0,1.0,66,0.00,,,0.00,weatherlink.com 1.10,2017-07-25 01:10:00,
2017-07-24 20:25:00,84.4,74.0,29.98,East,96,0.0,1.0,70,0.00,,,0.00,weatherlink.com 1.10,2017-07-25 01:25:00,
2017-07-24 20:40:00,82.9,73.0,29.99,East,96,0.0,0.0,72,0.00,,,0.00,weatherlink.com 1.10,2017-07-25 01:40:00,
2017-07-24 20:55:00,81.6,73.0,29.98,East,96,0.0,0.0,74,0.00,,,0.00,weatherlink.com 1.10,2017-07-25 01:55:00,